CheckWX is a tool to help pilots better visualize weather data.  It is not intended as a substitute for an official pre-flight weather briefing.

07:39:08 UTC

KLDJ METAR
Linden Airport
Linden, New Jersey, USA
Current

24 mins ago

KLDJ 060715Z AUTO 00000KT 10SM CLR 01/M06 A3015 RMK AO2 T00081065
Observed
Dec-6 @ 07:15 UTC
Visibility
10 SM
Flight Rules
VFR
Cloud Levels
  • Clear skies
Temperature
C / 34°F
Dewpoint
-7°C / 19°F
Humidity
56%
Altimeter
30.15" Hg
Pressure
1021.02 hPa
Previous

1 hour ago

KLDJ 060615Z AUTO 32004KT 10SM BKN043 01/M07 A3014 RMK AO2 T00131069
Observed
Dec-6 @ 06:15 UTC
Wind
  • 320° at 4 KTS
Visibility
10 SM
Flight Rules
VFR
Cloud Levels
  • Broken at 4,300' AGL
Temperature
C / 34°F
Dewpoint
-7°C / 19°F
Humidity
56%
Altimeter
30.14" Hg
Pressure
1020.62 hPa
Previous

3 hours ago

KLDJ 060435Z AUTO 32011G20KT 10SM CLR 02/M07 A3011 RMK AO2 T00201073
Observed
Dec-6 @ 04:35 UTC
Wind
  • 320° at 11 KTS
  • Gusting to 20 KTS
Visibility
10 SM
Flight Rules
VFR
Cloud Levels
  • Clear skies
Temperature
C / 36°F
Dewpoint
-7°C / 19°F
Humidity
52%
Altimeter
30.11" Hg
Pressure
1019.62 hPa